createdAt,value
2018-11-12T00:00:45.968Z,27.30
2018-11-12T00:03:17.781Z,25.50
2018-11-12T00:05:49.564Z,26.03
2018-11-12T00:08:21.567Z,28.33
2018-11-12T00:10:53.347Z,26.67
2018-11-12T00:13:25.195Z,27.30
2018-11-12T00:15:56.977Z,25.77
2018-11-12T00:18:28.855Z,25.30
2018-11-12T00:21:00.645Z,24.53
2018-11-12T00:23:32.475Z,25.73
2018-11-12T00:26:04.608Z,25.63
2018-11-12T00:28:41.073Z,24.83
2018-11-12T00:31:12.879Z,24.30
2018-11-12T00:33:44.694Z,24.00
2018-11-12T00:36:16.549Z,23.50
2018-11-12T00:38:48.394Z,23.80
2018-11-12T00:41:20.173Z,23.50
2018-11-12T00:43:51.998Z,25.27
2018-11-12T00:46:23.808Z,22.70
2018-11-12T00:48:55.696Z,23.30
2018-11-12T00:51:27.505Z,24.83
2018-11-12T00:53:59.305Z,23.57
2018-11-12T00:56:31.306Z,23.00
2018-11-12T00:59:03.139Z,24.43
2018-11-12T01:01:34.950Z,21.13
2018-11-12T01:04:07.170Z,25.97
2018-11-12T01:06:38.874Z,24.80
2018-11-12T01:09:12.480Z,23.70
2018-11-12T01:11:44.278Z,23.43
2018-11-12T01:14:16.120Z,24.77
2018-11-12T01:16:47.907Z,27.00
2018-11-12T01:19:19.744Z,24.63
2018-11-12T01:21:52.136Z,26.50
2018-11-12T01:24:23.943Z,24.77
2018-11-12T01:26:55.743Z,24.17
2018-11-12T01:29:27.561Z,26.30
2018-11-12T01:31:59.372Z,24.97
2018-11-12T01:34:31.174Z,23.90
2018-11-12T01:37:05.719Z,23.90
2018-11-12T01:39:37.660Z,23.10
2018-11-12T01:42:09.533Z,22.50
2018-11-12T01:44:41.305Z,26.30
2018-11-12T01:47:13.098Z,26.30
2018-11-12T01:49:44.941Z,30.70
2018-11-12T01:52:16.730Z,27.40
2018-11-12T01:54:48.548Z,27.80
2018-11-12T01:57:20.314Z,26.03
2018-11-12T01:59:52.116Z,24.07
2018-11-12T02:02:23.894Z,25.07
2018-11-12T02:04:55.833Z,22.93
2018-11-12T02:07:27.494Z,23.33
2018-11-12T02:09:59.344Z,24.77
2018-11-12T02:12:31.150Z,22.60
2018-11-12T02:15:02.976Z,26.70
2018-11-12T02:17:34.766Z,23.27
2018-11-12T02:20:07.873Z,23.73
2018-11-12T02:22:39.661Z,22.33
2018-11-12T02:25:12.384Z,22.50
2018-11-12T02:27:44.178Z,23.33
2018-11-12T02:30:36.181Z,22.13
2018-11-12T02:33:07.948Z,21.83
2018-11-12T02:35:39.737Z,20.23
2018-11-12T02:38:11.702Z,18.90
2018-11-12T02:40:43.590Z,21.93
2018-11-12T02:43:15.381Z,23.50
2018-11-12T02:45:47.200Z,23.67
2018-11-12T02:48:18.988Z,22.67
2018-11-12T02:50:50.805Z,22.53
2018-11-12T02:53:22.588Z,22.90
2018-11-12T02:55:54.518Z,21.73
2018-11-12T02:58:26.303Z,22.80
2018-11-12T03:01:00.781Z,22.43
2018-11-12T03:03:32.589Z,23.27
2018-11-12T03:06:04.416Z,21.63
2018-11-12T03:08:36.197Z,23.30
2018-11-12T03:11:07.983Z,22.93
2018-11-12T03:13:39.781Z,21.00
2018-11-12T03:16:11.754Z,22.40
2018-11-12T03:18:43.612Z,22.60
2018-11-12T03:21:15.435Z,21.10
2018-11-12T03:23:47.228Z,23.60
2018-11-12T03:26:19.038Z,21.70
2018-11-12T03:28:50.843Z,21.60
2018-11-12T03:31:22.825Z,21.10
2018-11-12T03:33:54.623Z,20.73
2018-11-12T03:36:26.452Z,18.90
2018-11-12T03:38:58.229Z,17.97
2018-11-12T03:41:30.042Z,19.37
2018-11-12T03:44:01.839Z,19.33
2018-11-12T03:46:33.676Z,19.40
2018-11-12T03:49:06.256Z,18.80
2018-11-12T03:51:38.080Z,16.90
2018-11-12T03:54:09.895Z,17.23
2018-11-12T03:56:41.736Z,18.67
2018-11-12T03:59:13.511Z,19.20
2018-11-12T04:01:46.150Z,16.43
2018-11-12T04:04:18.469Z,17.37
2018-11-12T04:06:50.307Z,18.53
2018-11-12T04:09:22.122Z,16.63
2018-11-12T04:11:54.073Z,16.77
2018-11-12T04:14:25.881Z,16.50
2018-11-12T04:16:57.666Z,16.47
2018-11-12T04:19:29.477Z,15.80
2018-11-12T04:22:01.304Z,16.43
2018-11-12T04:24:33.163Z,19.83
2018-11-12T04:27:04.977Z,15.33
2018-11-12T04:29:36.754Z,19.20
2018-11-12T04:32:08.600Z,15.50
2018-11-12T04:34:40.377Z,14.80
2018-11-12T04:37:12.218Z,15.97
2018-11-12T04:39:43.986Z,16.50
2018-11-12T04:42:15.819Z,15.83
2018-11-12T04:44:47.587Z,16.97
2018-11-12T04:47:19.395Z,16.87
2018-11-12T04:49:51.196Z,14.00
2018-11-12T04:52:23.014Z,15.07
2018-11-12T04:57:26.859Z,16.50
2018-11-12T04:59:58.711Z,16.40
2018-11-12T05:02:31.383Z,15.37
2018-11-12T05:05:03.184Z,14.37
2018-11-12T05:07:35.092Z,14.40
2018-11-12T05:10:09.192Z,14.97
2018-11-12T05:12:41.689Z,15.83
2018-11-12T05:15:16.175Z,14.67
2018-11-12T05:17:48.019Z,13.57
2018-11-12T05:20:21.329Z,14.27
2018-11-12T05:22:53.267Z,13.93
2018-11-12T05:25:25.078Z,15.07
2018-11-12T05:27:57.002Z,14.57
2018-11-12T05:30:29.805Z,15.50
2018-11-12T05:33:01.713Z,14.60
2018-11-12T05:35:33.581Z,14.90
2018-11-12T05:38:05.626Z,13.30
2018-11-12T05:40:37.434Z,12.83
2018-11-12T05:43:09.255Z,13.77
2018-11-12T05:45:41.034Z,14.27
2018-11-12T05:48:12.920Z,14.60
2018-11-12T05:50:44.730Z,13.63
2018-11-12T05:53:16.605Z,14.43
2018-11-12T05:55:48.457Z,13.13
2018-11-12T05:58:20.279Z,13.80
2018-11-12T06:00:52.097Z,14.67
2018-11-12T06:03:23.991Z,15.83
2018-11-12T06:05:55.848Z,14.40
2018-11-12T06:08:27.669Z,15.07
2018-11-12T06:10:59.539Z,15.60
2018-11-12T06:13:31.457Z,14.97
2018-11-12T06:16:03.267Z,14.80
2018-11-12T06:18:35.148Z,16.60
2018-11-12T06:21:07.298Z,16.13
2018-11-12T06:23:39.095Z,15.10
2018-11-12T06:26:10.909Z,15.93
2018-11-12T06:28:42.745Z,16.53
2018-11-12T06:31:14.674Z,17.77
2018-11-12T06:33:46.414Z,18.50
2018-11-12T06:36:18.325Z,18.70
2018-11-12T06:38:50.277Z,18.77
2018-11-12T06:41:22.060Z,18.07
2018-11-12T06:43:53.959Z,16.40
2018-11-12T06:46:25.808Z,16.63
2018-11-12T06:48:57.760Z,16.17
2018-11-12T06:51:29.720Z,14.20
2018-11-12T06:54:01.625Z,14.10
2018-11-12T06:56:33.543Z,14.57
2018-11-12T06:59:05.351Z,15.07
2018-11-12T07:01:37.323Z,13.33
2018-11-12T07:04:09.152Z,15.70
2018-11-12T07:06:40.957Z,14.13
2018-11-12T07:09:13.909Z,12.37
2018-11-12T07:11:45.723Z,12.00
2018-11-12T07:14:20.683Z,12.50
2018-11-12T07:17:10.206Z,12.23
2018-11-12T07:19:44.941Z,10.40
2018-11-12T07:22:16.806Z,10.30
2018-11-12T07:24:48.638Z,11.00
2018-11-12T07:27:20.458Z,10.00
2018-11-12T07:29:52.295Z,10.63
2018-11-12T07:32:24.097Z,9.33
2018-11-12T07:34:55.904Z,9.10
2018-11-12T07:37:27.734Z,8.70
2018-11-12T07:39:59.698Z,8.73
2018-11-12T07:42:31.655Z,8.70
2018-11-12T07:45:03.599Z,8.00
2018-11-12T07:47:35.571Z,7.90
2018-11-12T07:50:13.867Z,8.00
2018-11-12T07:52:45.851Z,8.30
2018-11-12T07:55:22.760Z,8.00
2018-11-12T07:57:55.512Z,8.23
2018-11-12T08:00:28.727Z,8.27
2018-11-12T08:03:07.828Z,8.40
2018-11-12T08:05:40.051Z,8.70
2018-11-12T08:08:12.077Z,9.37
2018-11-12T08:10:43.900Z,8.47
2018-11-12T08:13:15.697Z,8.43
2018-11-12T08:15:47.543Z,8.80
2018-11-12T08:18:19.416Z,7.63
2018-11-12T08:20:51.252Z,8.60
2018-11-12T08:23:23.171Z,11.80
2018-11-12T08:25:55.126Z,8.77
2018-11-12T08:28:26.868Z,8.80
2018-11-12T08:30:58.749Z,7.30
2018-11-12T08:33:30.648Z,7.10
2018-11-12T08:36:02.701Z,7.83
2018-11-12T08:38:34.398Z,6.30
2018-11-12T08:41:06.416Z,6.97
2018-11-12T08:43:38.185Z,6.67
2018-11-12T08:46:10.093Z,6.00
2018-11-12T08:48:42.090Z,6.50
2018-11-12T08:51:13.872Z,5.13
2018-11-12T08:53:45.735Z,5.60
2018-11-12T08:56:17.650Z,5.37
2018-11-12T08:58:52.673Z,3.93
2018-11-12T09:01:24.669Z,4.60
2018-11-12T09:03:56.505Z,3.80
2018-11-12T09:06:28.337Z,3.00
2018-11-12T09:09:00.168Z,2.20
2018-11-12T09:11:32.059Z,1.83
2018-11-12T09:14:04.187Z,2.60
2018-11-12T09:16:36.148Z,1.93
2018-11-12T09:19:08.541Z,2.20
2018-11-12T09:21:40.543Z,2.30
2018-11-12T09:24:12.401Z,2.00
2018-11-12T09:26:44.565Z,2.00
2018-11-12T09:29:16.442Z,1.70
2018-11-12T09:31:48.369Z,1.30
2018-11-12T09:34:20.314Z,1.47
2018-11-12T09:36:52.239Z,1.80
2018-11-12T09:39:24.109Z,1.93
2018-11-12T09:41:55.979Z,1.80
2018-11-12T09:44:27.936Z,1.20
2018-11-12T09:46:59.769Z,1.50
2018-11-12T09:49:31.683Z,1.60
2018-11-12T09:52:03.791Z,1.20
2018-11-12T09:54:35.858Z,1.80
2018-11-12T09:57:07.662Z,1.33
2018-11-12T09:59:39.449Z,1.30
2018-11-12T10:02:11.985Z,1.37
2018-11-12T10:04:44.639Z,1.53
2018-11-12T10:07:16.386Z,1.50
2018-11-12T10:09:49.996Z,1.63
2018-11-12T10:12:21.385Z,3.10
2018-11-12T10:14:52.896Z,1.50
2018-11-12T10:17:25.411Z,2.07
2018-11-12T10:19:54.524Z,1.90
2018-11-12T10:22:26.385Z,1.53
2018-11-12T10:24:58.187Z,1.93
2018-11-12T10:27:30.025Z,1.87
2018-11-12T10:30:01.996Z,1.60
2018-11-12T10:32:33.883Z,1.70
2018-11-12T10:35:05.990Z,2.20
2018-11-12T10:37:38.343Z,2.53
2018-11-12T10:40:17.289Z,1.83
2018-11-12T10:42:49.380Z,1.80
2018-11-12T10:45:31.083Z,1.90
2018-11-12T10:48:03.076Z,1.60
2018-11-12T10:50:35.006Z,1.90
2018-11-12T10:53:07.217Z,2.17
2018-11-12T10:55:39.148Z,2.10
2018-11-12T10:58:10.954Z,2.10
2018-11-12T11:01:00.381Z,2.00
2018-11-12T11:03:54.183Z,2.13
2018-11-12T11:06:28.247Z,2.13
2018-11-12T11:09:00.131Z,2.50
2018-11-12T11:11:31.944Z,2.10
2018-11-12T11:14:03.815Z,3.30
2018-11-12T11:16:35.640Z,2.90
2018-11-12T11:19:08.182Z,3.20
2018-11-12T11:21:40.001Z,3.93
2018-11-12T11:24:11.877Z,3.63
2018-11-12T11:26:43.752Z,3.20
2018-11-12T11:29:15.663Z,4.03
2018-11-12T11:31:47.546Z,3.50
2018-11-12T11:34:19.466Z,3.63
2018-11-12T11:36:51.278Z,3.67
2018-11-12T11:39:23.068Z,3.60
2018-11-12T11:41:54.891Z,4.20
2018-11-12T11:44:26.753Z,3.60
2018-11-12T11:46:58.567Z,3.57
2018-11-12T11:49:30.598Z,3.70
2018-11-12T11:52:02.547Z,3.80
2018-11-12T11:54:34.466Z,3.20
2018-11-12T11:57:06.587Z,3.73
2018-11-12T11:59:38.435Z,2.67
2018-11-12T12:02:10.385Z,7.30
2018-11-12T12:04:42.204Z,7.30
2018-11-12T12:07:14.018Z,3.17
2018-11-12T12:09:46.021Z,3.30
2018-11-12T12:12:17.776Z,2.90
2018-11-12T12:14:49.681Z,2.80
2018-11-12T12:17:21.537Z,2.80
2018-11-12T12:19:53.448Z,3.00
2018-11-12T12:22:25.266Z,3.00
2018-11-12T12:24:57.267Z,2.70
2018-11-12T12:27:29.019Z,2.80
2018-11-12T12:30:00.936Z,2.10
2018-11-12T12:32:32.959Z,2.20
2018-11-12T12:35:04.823Z,1.77
2018-11-12T12:37:36.849Z,2.73
2018-11-12T12:40:11.488Z,8.83
2018-11-12T12:42:43.336Z,2.50
2018-11-12T12:45:16.752Z,2.40
2018-11-12T12:47:48.994Z,2.10
2018-11-12T12:50:21.476Z,2.30
2018-11-12T12:52:53.321Z,2.57
2018-11-12T12:55:27.458Z,2.17
2018-11-12T12:57:59.273Z,2.10
2018-11-12T13:00:31.163Z,2.20
2018-11-12T13:03:03.018Z,1.90
2018-11-12T13:05:34.930Z,1.90
2018-11-12T13:08:06.902Z,1.70
2018-11-12T13:10:38.827Z,1.73
2018-11-12T13:13:11.693Z,1.60
2018-11-12T13:15:43.623Z,2.07
2018-11-12T13:18:15.489Z,1.30
2018-11-12T13:20:47.453Z,1.73
2018-11-12T13:23:21.723Z,1.93
2018-11-12T13:25:53.577Z,1.90
2018-11-12T13:28:25.518Z,1.63
2018-11-12T13:30:57.356Z,1.60
2018-11-12T13:33:29.197Z,1.67
2018-11-12T13:36:01.177Z,1.97
2018-11-12T13:38:33.092Z,1.63
2018-11-12T13:41:04.937Z,1.87
2018-11-12T13:43:36.881Z,1.83
2018-11-12T13:46:08.897Z,2.03
2018-11-12T13:48:46.871Z,1.90
2018-11-12T13:51:19.512Z,1.87
2018-11-12T13:53:51.435Z,1.73
2018-11-12T13:56:23.593Z,2.00
2018-11-12T13:58:55.539Z,1.80
2018-11-12T14:01:27.316Z,1.90
2018-11-12T14:03:59.160Z,1.80
2018-11-12T14:06:31.094Z,2.50
2018-11-12T14:09:02.898Z,2.00
2018-11-12T14:11:34.801Z,2.20
2018-11-12T14:14:07.301Z,2.20
2018-11-12T14:16:38.943Z,2.47
2018-11-12T14:19:13.291Z,6.03
2018-11-12T14:21:45.300Z,5.57
2018-11-12T14:24:17.133Z,6.63
2018-11-12T14:26:49.091Z,6.60
2018-11-12T14:29:21.062Z,6.90
2018-11-12T14:31:52.929Z,7.70
2018-11-12T14:34:24.773Z,7.30
2018-11-12T14:36:56.678Z,6.57
2018-11-12T14:39:28.577Z,6.60
2018-11-12T14:42:00.403Z,7.27
2018-11-12T14:44:32.257Z,7.80
2018-11-12T14:47:04.172Z,7.70
2018-11-12T14:49:36.090Z,9.10
2018-11-12T14:52:08.033Z,10.00
2018-11-12T14:54:39.912Z,8.33
2018-11-12T14:57:11.837Z,9.43
2018-11-12T14:59:43.752Z,8.17
2018-11-12T15:02:15.635Z,9.10
2018-11-12T15:04:47.503Z,11.37
2018-11-12T15:07:19.464Z,10.27
2018-11-12T15:09:51.491Z,10.70
2018-11-12T15:12:23.424Z,10.10
2018-11-12T15:14:55.357Z,11.27
2018-11-12T15:17:29.835Z,9.73
2018-11-12T15:20:01.726Z,10.50
2018-11-12T15:22:33.648Z,11.33
2018-11-12T15:25:05.947Z,11.27
2018-11-12T15:27:37.846Z,11.30
2018-11-12T15:30:14.135Z,11.03
2018-11-12T15:32:46.940Z,11.77
2018-11-12T15:35:18.805Z,10.70
2018-11-12T15:37:51.145Z,11.50
2018-11-12T15:40:22.924Z,11.87
2018-11-12T15:42:54.811Z,11.93
2018-11-12T15:45:26.901Z,10.50
2018-11-12T15:47:58.762Z,12.53
2018-11-12T15:50:36.223Z,13.00
2018-11-12T15:53:08.090Z,10.83
2018-11-12T15:55:39.969Z,10.37
2018-11-12T15:58:12.076Z,11.10
2018-11-12T16:00:44.012Z,10.07
2018-11-12T16:03:15.861Z,10.60
2018-11-12T16:05:47.804Z,10.83
2018-11-12T16:08:19.816Z,9.27
2018-11-12T16:10:51.666Z,11.13
2018-11-12T16:13:23.420Z,10.73
2018-11-12T16:15:55.269Z,10.57
2018-11-12T16:18:27.128Z,10.87
2018-11-12T16:20:59.004Z,10.40
2018-11-12T16:23:30.967Z,12.50
2018-11-12T16:26:02.804Z,13.00
2018-11-12T16:28:34.677Z,14.10
2018-11-12T16:31:06.944Z,12.17
2018-11-12T16:33:41.041Z,11.10
2018-11-12T16:36:12.949Z,11.40
2018-11-12T16:38:44.954Z,11.37
2018-11-12T16:41:16.820Z,11.90
2018-11-12T16:43:48.786Z,11.13
2018-11-12T16:46:20.703Z,11.90
2018-11-12T16:48:52.684Z,12.90
2018-11-12T16:51:24.672Z,11.20
2018-11-12T16:53:56.478Z,11.40
2018-11-12T16:56:28.325Z,11.40
2018-11-12T16:59:00.258Z,11.10
2018-11-12T17:01:32.183Z,9.47
2018-11-12T17:04:03.894Z,10.03
2018-11-12T17:06:35.903Z,10.70
2018-11-12T17:09:14.255Z,10.67
2018-11-12T17:11:46.142Z,10.53
2018-11-12T17:14:18.034Z,10.50
2018-11-12T17:16:49.882Z,11.00
2018-11-12T17:19:21.826Z,10.20
2018-11-12T17:21:53.745Z,10.20
2018-11-12T17:24:25.730Z,10.50
2018-11-12T17:27:00.283Z,11.27
2018-11-12T17:29:32.213Z,11.07
2018-11-12T17:32:04.071Z,10.90
2018-11-12T17:34:35.892Z,12.20
2018-11-12T17:37:07.965Z,12.77
2018-11-12T17:39:39.789Z,13.67
2018-11-12T17:42:11.693Z,15.13
2018-11-12T17:44:43.517Z,15.10
2018-11-12T17:47:15.392Z,14.97
2018-11-12T17:49:47.314Z,16.77
2018-11-12T17:52:19.241Z,14.13
2018-11-12T17:54:51.108Z,15.30
2018-11-12T17:57:23.032Z,15.57
2018-11-12T17:59:54.935Z,14.50
2018-11-12T18:02:26.849Z,14.20
2018-11-12T18:04:58.762Z,13.83
2018-11-12T18:07:30.692Z,15.50
2018-11-12T18:10:02.449Z,14.40
2018-11-12T18:12:34.417Z,15.60
2018-11-12T18:15:07.759Z,25.20
2018-11-12T18:17:39.644Z,22.50
2018-11-12T18:20:17.424Z,21.10
2018-11-12T18:22:49.844Z,17.43
2018-11-12T18:25:21.749Z,15.47
2018-11-12T18:27:54.375Z,16.70
2018-11-12T18:30:27.802Z,17.13
2018-11-12T18:33:00.030Z,16.50
2018-11-12T18:35:31.900Z,20.30
2018-11-12T18:38:03.912Z,17.70
2018-11-12T18:40:35.592Z,20.77
2018-11-12T18:43:07.907Z,21.97
2018-11-12T18:45:39.754Z,22.70
2018-11-12T18:48:11.619Z,21.33
2018-11-12T18:50:43.503Z,24.93
2018-11-12T18:53:15.381Z,23.27
2018-11-12T18:55:47.357Z,27.17
2018-11-12T18:58:19.252Z,25.70
2018-11-12T19:00:51.125Z,25.83
2018-11-12T19:03:23.068Z,24.30
2018-11-12T19:05:55.085Z,25.53
2018-11-12T19:08:26.944Z,24.07
2018-11-12T19:10:58.916Z,24.50
2018-11-12T19:13:32.160Z,24.43
2018-11-12T19:16:04.191Z,21.83
2018-11-12T19:18:36.044Z,22.70
2018-11-12T19:21:08.248Z,20.43
2018-11-12T19:23:40.047Z,18.00
2018-11-12T19:26:11.841Z,18.50
2018-11-12T19:28:43.670Z,17.40
2018-11-12T19:31:15.563Z,17.40
2018-11-12T19:33:47.377Z,17.53
2018-11-12T19:36:19.352Z,17.50
2018-11-12T19:38:51.203Z,18.87
2018-11-12T19:41:23.052Z,16.43
2018-11-12T19:43:54.896Z,18.10
2018-11-12T19:46:26.724Z,19.87
2018-11-12T19:48:58.556Z,18.20
2018-11-12T19:51:30.504Z,16.93
2018-11-12T19:54:02.247Z,18.37
2018-11-12T19:56:34.075Z,16.00
2018-11-12T19:59:06.246Z,16.57
2018-11-12T20:01:38.029Z,16.83
2018-11-12T20:04:09.899Z,16.50
2018-11-12T20:06:41.785Z,13.97
2018-11-12T20:09:13.628Z,15.50
2018-11-12T20:11:45.577Z,14.27
2018-11-12T20:14:17.504Z,14.90
2018-11-12T20:16:49.339Z,14.73
2018-11-12T20:19:21.175Z,15.97
2018-11-12T20:21:53.098Z,16.37
2018-11-12T20:24:24.936Z,15.00
2018-11-12T20:26:56.845Z,16.17
2018-11-12T20:29:29.230Z,15.20
2018-11-12T20:32:01.121Z,13.80
2018-11-12T20:34:32.946Z,15.40
2018-11-12T20:37:04.750Z,14.57
2018-11-12T20:39:36.618Z,13.17
2018-11-12T20:42:08.817Z,15.23
2018-11-12T20:44:40.673Z,14.70
2018-11-12T20:47:12.479Z,13.17
2018-11-12T20:49:44.298Z,14.47
2018-11-12T20:52:16.243Z,15.57
2018-11-12T20:54:47.998Z,15.53
2018-11-12T20:57:19.824Z,17.10
2018-11-12T20:59:53.791Z,19.53
2018-11-12T21:02:25.653Z,19.33
2018-11-12T21:04:57.472Z,19.57
2018-11-12T21:07:29.287Z,19.03
2018-11-12T21:10:01.121Z,20.47
2018-11-12T21:12:32.967Z,20.60
2018-11-12T21:15:07.822Z,18.07
2018-11-12T21:17:36.700Z,18.73
2018-11-12T21:20:10.725Z,17.23
2018-11-12T21:22:42.697Z,16.50
2018-11-12T21:25:15.867Z,16.00
2018-11-12T21:27:47.763Z,14.50
2018-11-12T21:30:21.126Z,15.00
2018-11-12T21:32:52.974Z,14.40
2018-11-12T21:35:24.853Z,13.97
2018-11-12T21:37:58.107Z,12.47
2018-11-12T21:40:30.208Z,12.97
2018-11-12T21:43:02.123Z,13.10
2018-11-12T21:45:33.855Z,13.30
2018-11-12T21:48:05.902Z,13.23
2018-11-12T21:50:37.699Z,14.57
2018-11-12T21:53:09.512Z,14.00
2018-11-12T21:55:41.333Z,14.23
2018-11-12T21:58:13.153Z,14.10
2018-11-12T22:00:45.005Z,14.93
2018-11-12T22:03:16.846Z,13.47
2018-11-12T22:05:48.669Z,14.20
2018-11-12T22:08:20.557Z,15.43
2018-11-12T22:10:52.415Z,16.40
2018-11-12T22:13:24.243Z,16.37
2018-11-12T22:15:56.028Z,15.50
2018-11-12T22:18:27.866Z,14.63
2018-11-12T22:20:59.685Z,13.83
2018-11-12T22:23:31.547Z,14.97
2018-11-12T22:26:03.372Z,14.67
2018-11-12T22:28:35.208Z,14.20
2018-11-12T22:31:07.194Z,13.00
2018-11-12T22:33:39.027Z,14.67
2018-11-12T22:36:10.847Z,12.00
2018-11-12T22:38:42.651Z,13.57
2018-11-12T22:41:14.461Z,11.90
2018-11-12T22:43:46.340Z,11.47
2018-11-12T22:46:18.174Z,11.33
2018-11-12T22:48:49.997Z,11.17
2018-11-12T22:51:21.804Z,9.60
2018-11-12T22:53:53.735Z,11.13
2018-11-12T22:56:25.471Z,10.07
2018-11-12T22:58:57.288Z,9.53
2018-11-12T23:01:29.131Z,10.40
2018-11-12T23:04:01.020Z,9.20
2018-11-12T23:06:32.812Z,10.00
2018-11-12T23:09:14.124Z,8.63
2018-11-12T23:11:45.936Z,9.07
2018-11-12T23:14:17.792Z,7.93
2018-11-12T23:16:49.621Z,7.70
2018-11-12T23:19:21.576Z,7.83
2018-11-12T23:21:53.288Z,7.90
2018-11-12T23:24:25.228Z,8.33
2018-11-12T23:26:57.451Z,8.47
2018-11-12T23:29:29.267Z,8.13
2018-11-12T23:32:01.092Z,8.50
2018-11-12T23:34:32.903Z,7.80
2018-11-12T23:37:04.698Z,7.47
2018-11-12T23:39:36.527Z,7.23
2018-11-12T23:42:08.543Z,7.57
2018-11-12T23:44:40.342Z,7.70
2018-11-12T23:47:12.137Z,6.60
2018-11-12T23:49:43.959Z,8.93
2018-11-12T23:52:15.777Z,6.97
2018-11-12T23:54:47.601Z,8.17
2018-11-12T23:57:19.449Z,6.90
2018-11-12T23:59:51.245Z,7.73
